sensor_id;sensor_type;location;lat;lon;timestamp;P1;durP1;ratioP1;P2;durP2;ratioP2
35290;SDS011;21411;50.024;19.220;2023-08-08T00:02:12;2.60;;;1.50;;
35290;SDS011;21411;50.024;19.220;2023-08-08T00:04:38;2.80;;;1.50;;
35290;SDS011;21411;50.024;19.220;2023-08-08T00:07:05;3.90;;;1.70;;
35290;SDS011;21411;50.024;19.220;2023-08-08T00:09:32;1.40;;;1.30;;
35290;SDS011;21411;50.024;19.220;2023-08-08T00:11:59;1.20;;;1.10;;
35290;SDS011;21411;50.024;19.220;2023-08-08T00:14:25;1.90;;;1.30;;
35290;SDS011;21411;50.024;19.220;2023-08-08T00:16:52;2.00;;;1.30;;
35290;SDS011;21411;50.024;19.220;2023-08-08T00:19:18;1.60;;;1.50;;
35290;SDS011;21411;50.024;19.220;2023-08-08T00:21:45;2.20;;;1.40;;
35290;SDS011;21411;50.024;19.220;2023-08-08T00:24:12;1.70;;;1.60;;
35290;SDS011;21411;50.024;19.220;2023-08-08T00:26:38;2.30;;;1.60;;
35290;SDS011;21411;50.024;19.220;2023-08-08T00:29:05;1.60;;;1.50;;
35290;SDS011;21411;50.024;19.220;2023-08-08T00:31:32;1.60;;;1.50;;
35290;SDS011;21411;50.024;19.220;2023-08-08T00:33:59;1.60;;;1.30;;
35290;SDS011;21411;50.024;19.220;2023-08-08T00:36:25;1.30;;;1.20;;
35290;SDS011;21411;50.024;19.220;2023-08-08T00:38:52;1.50;;;1.40;;
35290;SDS011;21411;50.024;19.220;2023-08-08T00:41:19;1.60;;;1.30;;
35290;SDS011;21411;50.024;19.220;2023-08-08T00:43:45;1.70;;;1.30;;
35290;SDS011;21411;50.024;19.220;2023-08-08T00:46:12;2.00;;;1.10;;
35290;SDS011;21411;50.024;19.220;2023-08-08T00:48:38;1.40;;;1.30;;
35290;SDS011;21411;50.024;19.220;2023-08-08T00:51:05;4.50;;;1.50;;
35290;SDS011;21411;50.024;19.220;2023-08-08T00:53:32;1.70;;;1.50;;
35290;SDS011;21411;50.024;19.220;2023-08-08T00:55:58;1.70;;;1.60;;
35290;SDS011;21411;50.024;19.220;2023-08-08T00:58:25;2.20;;;1.40;;
35290;SDS011;21411;50.024;19.220;2023-08-08T01:00:52;1.90;;;1.60;;
35290;SDS011;21411;50.024;19.220;2023-08-08T01:03:22;3.30;;;1.50;;
35290;SDS011;21411;50.024;19.220;2023-08-08T01:05:51;3.20;;;1.40;;
35290;SDS011;21411;50.024;19.220;2023-08-08T01:08:27;2.20;;;1.30;;
35290;SDS011;21411;50.024;19.220;2023-08-08T01:10:59;2.10;;;1.40;;
35290;SDS011;21411;50.024;19.220;2023-08-08T01:13:26;1.40;;;1.20;;
35290;SDS011;21411;50.024;19.220;2023-08-08T01:15:56;1.60;;;1.50;;
35290;SDS011;21411;50.024;19.220;2023-08-08T01:18:24;2.10;;;1.20;;
35290;SDS011;21411;50.024;19.220;2023-08-08T01:20:51;1.30;;;1.20;;
35290;SDS011;21411;50.024;19.220;2023-08-08T01:23:24;1.90;;;1.20;;
35290;SDS011;21411;50.024;19.220;2023-08-08T01:25:56;2.70;;;1.60;;
35290;SDS011;21411;50.024;19.220;2023-08-08T01:28:24;3.90;;;1.40;;
35290;SDS011;21411;50.024;19.220;2023-08-08T01:30:51;1.70;;;1.10;;
35290;SDS011;21411;50.024;19.220;2023-08-08T01:33:18;2.70;;;1.20;;
35290;SDS011;21411;50.024;19.220;2023-08-08T01:35:46;2.70;;;1.90;;
35290;SDS011;21411;50.024;19.220;2023-08-08T01:38:20;1.20;;;1.00;;
35290;SDS011;21411;50.024;19.220;2023-08-08T01:40:56;1.40;;;1.30;;
35290;SDS011;21411;50.024;19.220;2023-08-08T01:43:24;3.10;;;1.60;;
35290;SDS011;21411;50.024;19.220;2023-08-08T01:45:52;3.60;;;1.30;;
35290;SDS011;21411;50.024;19.220;2023-08-08T01:48:18;1.70;;;1.50;;
35290;SDS011;21411;50.024;19.220;2023-08-08T01:50:45;2.00;;;1.30;;
35290;SDS011;21411;50.024;19.220;2023-08-08T01:53:12;3.10;;;1.80;;
35290;SDS011;21411;50.024;19.220;2023-08-08T01:55:38;2.10;;;1.40;;
35290;SDS011;21411;50.024;19.220;2023-08-08T01:58:05;1.70;;;1.20;;
35290;SDS011;21411;50.024;19.220;2023-08-08T02:00:32;1.50;;;1.40;;
35290;SDS011;21411;50.024;19.220;2023-08-08T02:02:58;1.90;;;1.50;;
35290;SDS011;21411;50.024;19.220;2023-08-08T02:05:25;2.00;;;1.40;;
35290;SDS011;21411;50.024;19.220;2023-08-08T02:07:52;3.80;;;1.60;;
35290;SDS011;21411;50.024;19.220;2023-08-08T02:10:18;5.20;;;1.50;;
35290;SDS011;21411;50.024;19.220;2023-08-08T02:12:45;2.80;;;1.20;;
35290;SDS011;21411;50.024;19.220;2023-08-08T02:15:11;2.40;;;1.60;;
35290;SDS011;21411;50.024;19.220;2023-08-08T02:17:38;2.20;;;1.50;;
35290;SDS011;21411;50.024;19.220;2023-08-08T02:20:05;3.00;;;1.60;;
35290;SDS011;21411;50.024;19.220;2023-08-08T02:22:33;3.00;;;1.50;;
35290;SDS011;21411;50.024;19.220;2023-08-08T02:25:00;1.70;;;1.60;;
35290;SDS011;21411;50.024;19.220;2023-08-08T02:27:26;3.20;;;1.50;;
35290;SDS011;21411;50.024;19.220;2023-08-08T02:29:53;3.10;;;1.50;;
35290;SDS011;21411;50.024;19.220;2023-08-08T02:32:20;2.00;;;1.50;;
35290;SDS011;21411;50.024;19.220;2023-08-08T02:34:46;2.10;;;1.90;;
35290;SDS011;21411;50.024;19.220;2023-08-08T02:37:13;2.70;;;1.50;;
35290;SDS011;21411;50.024;19.220;2023-08-08T02:39:41;3.20;;;1.50;;
35290;SDS011;21411;50.024;19.220;2023-08-08T02:42:08;4.40;;;1.70;;
35290;SDS011;21411;50.024;19.220;2023-08-08T02:44:35;2.70;;;1.80;;
35290;SDS011;21411;50.024;19.220;2023-08-08T02:47:02;2.60;;;1.60;;
35290;SDS011;21411;50.024;19.220;2023-08-08T02:49:28;3.70;;;1.90;;
35290;SDS011;21411;50.024;19.220;2023-08-08T02:51:55;2.60;;;1.70;;
35290;SDS011;21411;50.024;19.220;2023-08-08T02:54:22;2.00;;;1.70;;
35290;SDS011;21411;50.024;19.220;2023-08-08T02:56:49;3.80;;;2.00;;
35290;SDS011;21411;50.024;19.220;2023-08-08T02:59:15;5.00;;;2.00;;
35290;SDS011;21411;50.024;19.220;2023-08-08T03:01:42;4.10;;;2.30;;
35290;SDS011;21411;50.024;19.220;2023-08-08T03:04:09;3.20;;;2.10;;
35290;SDS011;21411;50.024;19.220;2023-08-08T03:06:35;4.10;;;1.90;;
35290;SDS011;21411;50.024;19.220;2023-08-08T03:09:02;4.60;;;2.10;;
35290;SDS011;21411;50.024;19.220;2023-08-08T03:11:28;3.90;;;2.20;;
35290;SDS011;21411;50.024;19.220;2023-08-08T03:13:55;7.10;;;2.50;;
35290;SDS011;21411;50.024;19.220;2023-08-08T03:16:21;6.10;;;2.20;;
35290;SDS011;21411;50.024;19.220;2023-08-08T03:18:48;4.20;;;1.90;;
35290;SDS011;21411;50.024;19.220;2023-08-08T03:21:15;4.00;;;2.50;;
35290;SDS011;21411;50.024;19.220;2023-08-08T03:23:41;3.00;;;2.10;;
35290;SDS011;21411;50.024;19.220;2023-08-08T03:26:08;5.30;;;2.70;;
35290;SDS011;21411;50.024;19.220;2023-08-08T03:28:35;3.20;;;2.10;;
35290;SDS011;21411;50.024;19.220;2023-08-08T03:31:02;4.00;;;2.80;;
35290;SDS011;21411;50.024;19.220;2023-08-08T03:33:29;4.00;;;2.30;;
35290;SDS011;21411;50.024;19.220;2023-08-08T03:35:56;3.90;;;2.70;;
35290;SDS011;21411;50.024;19.220;2023-08-08T03:38:22;3.30;;;2.20;;
35290;SDS011;21411;50.024;19.220;2023-08-08T03:40:49;3.50;;;2.60;;
35290;SDS011;21411;50.024;19.220;2023-08-08T03:43:15;3.90;;;2.20;;
35290;SDS011;21411;50.024;19.220;2023-08-08T03:45:42;3.50;;;2.30;;
35290;SDS011;21411;50.024;19.220;2023-08-08T03:48:08;4.70;;;2.40;;
35290;SDS011;21411;50.024;19.220;2023-08-08T03:50:35;3.30;;;2.00;;
35290;SDS011;21411;50.024;19.220;2023-08-08T03:53:02;2.70;;;2.40;;
35290;SDS011;21411;50.024;19.220;2023-08-08T03:55:28;3.60;;;2.10;;
35290;SDS011;21411;50.024;19.220;2023-08-08T03:57:55;2.90;;;2.20;;
35290;SDS011;21411;50.024;19.220;2023-08-08T04:00:22;3.80;;;2.00;;
35290;SDS011;21411;50.024;19.220;2023-08-08T04:02:48;2.20;;;2.00;;
35290;SDS011;21411;50.024;19.220;2023-08-08T04:05:15;4.50;;;2.10;;
35290;SDS011;21411;50.024;19.220;2023-08-08T04:07:41;2.80;;;2.00;;
35290;SDS011;21411;50.024;19.220;2023-08-08T04:10:08;5.50;;;2.20;;
35290;SDS011;21411;50.024;19.220;2023-08-08T04:12:35;2.60;;;1.60;;
35290;SDS011;21411;50.024;19.220;2023-08-08T04:15:01;4.60;;;2.00;;
35290;SDS011;21411;50.024;19.220;2023-08-08T04:17:28;3.80;;;2.00;;
35290;SDS011;21411;50.024;19.220;2023-08-08T04:19:55;4.30;;;2.50;;
35290;SDS011;21411;50.024;19.220;2023-08-08T04:22:21;3.60;;;2.10;;
35290;SDS011;21411;50.024;19.220;2023-08-08T04:24:48;3.80;;;1.90;;
35290;SDS011;21411;50.024;19.220;2023-08-08T04:27:14;3.90;;;1.80;;
35290;SDS011;21411;50.024;19.220;2023-08-08T04:29:41;4.70;;;2.20;;
35290;SDS011;21411;50.024;19.220;2023-08-08T04:32:08;2.60;;;2.20;;
35290;SDS011;21411;50.024;19.220;2023-08-08T04:34:35;3.10;;;2.10;;
35290;SDS011;21411;50.024;19.220;2023-08-08T04:37:01;2.70;;;2.20;;
35290;SDS011;21411;50.024;19.220;2023-08-08T04:39:28;4.50;;;2.40;;
35290;SDS011;21411;50.024;19.220;2023-08-08T04:41:54;4.80;;;2.00;;
35290;SDS011;21411;50.024;19.220;2023-08-08T04:44:21;3.20;;;2.00;;
35290;SDS011;21411;50.024;19.220;2023-08-08T04:46:47;2.90;;;2.10;;
35290;SDS011;21411;50.024;19.220;2023-08-08T04:49:14;4.40;;;2.50;;
35290;SDS011;21411;50.024;19.220;2023-08-08T04:51:40;3.00;;;2.10;;
35290;SDS011;21411;50.024;19.220;2023-08-08T04:54:07;2.10;;;1.90;;
35290;SDS011;21411;50.024;19.220;2023-08-08T04:56:33;3.60;;;1.80;;
35290;SDS011;21411;50.024;19.220;2023-08-08T04:59:00;5.30;;;2.10;;
35290;SDS011;21411;50.024;19.220;2023-08-08T05:01:26;2.30;;;2.00;;
35290;SDS011;21411;50.024;19.220;2023-08-08T05:03:53;3.50;;;2.10;;
35290;SDS011;21411;50.024;19.220;2023-08-08T05:06:19;2.80;;;1.80;;
35290;SDS011;21411;50.024;19.220;2023-08-08T05:08:48;3.50;;;2.20;;
35290;SDS011;21411;50.024;19.220;2023-08-08T05:11:16;3.00;;;1.90;;
35290;SDS011;21411;50.024;19.220;2023-08-08T05:13:42;2.90;;;2.30;;
35290;SDS011;21411;50.024;19.220;2023-08-08T05:16:09;5.30;;;1.90;;
35290;SDS011;21411;50.024;19.220;2023-08-08T05:18:35;3.30;;;2.20;;
35290;SDS011;21411;50.024;19.220;2023-08-08T05:21:02;4.30;;;2.10;;
35290;SDS011;21411;50.024;19.220;2023-08-08T05:23:29;2.00;;;1.50;;
35290;SDS011;21411;50.024;19.220;2023-08-08T05:25:55;3.50;;;2.30;;
35290;SDS011;21411;50.024;19.220;2023-08-08T05:28:22;3.20;;;2.00;;
35290;SDS011;21411;50.024;19.220;2023-08-08T05:30:49;6.40;;;3.00;;
35290;SDS011;21411;50.024;19.220;2023-08-08T05:33:15;3.10;;;1.70;;
35290;SDS011;21411;50.024;19.220;2023-08-08T05:35:42;3.40;;;1.90;;
35290;SDS011;21411;50.024;19.220;2023-08-08T05:38:08;5.00;;;1.90;;
35290;SDS011;21411;50.024;19.220;2023-08-08T05:40:35;3.60;;;1.50;;
35290;SDS011;21411;50.024;19.220;2023-08-08T05:43:03;3.50;;;1.90;;
35290;SDS011;21411;50.024;19.220;2023-08-08T05:45:29;2.40;;;1.70;;
35290;SDS011;21411;50.024;19.220;2023-08-08T05:47:56;3.20;;;1.90;;
35290;SDS011;21411;50.024;19.220;2023-08-08T05:50:23;3.40;;;1.80;;
35290;SDS011;21411;50.024;19.220;2023-08-08T05:52:49;1.90;;;1.50;;
35290;SDS011;21411;50.024;19.220;2023-08-08T05:55:16;5.40;;;1.90;;
35290;SDS011;21411;50.024;19.220;2023-08-08T05:57:43;4.60;;;1.70;;
35290;SDS011;21411;50.024;19.220;2023-08-08T06:00:09;2.50;;;2.10;;
35290;SDS011;21411;50.024;19.220;2023-08-08T06:02:37;2.50;;;1.80;;
35290;SDS011;21411;50.024;19.220;2023-08-08T06:05:04;5.90;;;1.50;;
35290;SDS011;21411;50.024;19.220;2023-08-08T06:07:31;1.60;;;1.40;;
35290;SDS011;21411;50.024;19.220;2023-08-08T06:09:58;4.70;;;2.20;;
35290;SDS011;21411;50.024;19.220;2023-08-08T06:12:24;4.30;;;1.60;;
35290;SDS011;21411;50.024;19.220;2023-08-08T06:14:51;3.80;;;1.40;;
35290;SDS011;21411;50.024;19.220;2023-08-08T06:17:17;2.70;;;1.80;;
35290;SDS011;21411;50.024;19.220;2023-08-08T06:19:44;2.90;;;1.30;;
35290;SDS011;21411;50.024;19.220;2023-08-08T06:22:11;2.60;;;1.50;;
35290;SDS011;21411;50.024;19.220;2023-08-08T06:24:38;1.70;;;1.40;;
35290;SDS011;21411;50.024;19.220;2023-08-08T06:27:05;1.40;;;1.10;;
35290;SDS011;21411;50.024;19.220;2023-08-08T06:29:32;2.90;;;1.40;;
35290;SDS011;21411;50.024;19.220;2023-08-08T06:31:58;2.40;;;1.20;;
35290;SDS011;21411;50.024;19.220;2023-08-08T06:34:25;1.90;;;1.20;;
35290;SDS011;21411;50.024;19.220;2023-08-08T06:36:52;2.30;;;1.40;;
35290;SDS011;21411;50.024;19.220;2023-08-08T06:39:19;2.50;;;1.30;;
35290;SDS011;21411;50.024;19.220;2023-08-08T06:41:47;1.80;;;1.00;;
35290;SDS011;21411;50.024;19.220;2023-08-08T06:44:14;2.90;;;1.20;;
35290;SDS011;21411;50.024;19.220;2023-08-08T06:46:41;3.40;;;1.40;;
35290;SDS011;21411;50.024;19.220;2023-08-08T06:49:07;1.50;;;1.20;;
35290;SDS011;21411;50.024;19.220;2023-08-08T06:51:35;1.80;;;1.50;;
35290;SDS011;21411;50.024;19.220;2023-08-08T06:54:01;6.30;;;1.50;;
35290;SDS011;21411;50.024;19.220;2023-08-08T06:56:29;2.40;;;1.50;;
35290;SDS011;21411;50.024;19.220;2023-08-08T06:58:55;3.00;;;1.50;;
35290;SDS011;21411;50.024;19.220;2023-08-08T07:01:22;1.50;;;1.40;;
35290;SDS011;21411;50.024;19.220;2023-08-08T07:03:48;4.20;;;1.60;;
35290;SDS011;21411;50.024;19.220;2023-08-08T07:06:17;3.60;;;1.20;;
35290;SDS011;21411;50.024;19.220;2023-08-08T07:08:43;2.90;;;1.40;;
35290;SDS011;21411;50.024;19.220;2023-08-08T07:11:10;1.40;;;1.30;;
35290;SDS011;21411;50.024;19.220;2023-08-08T07:13:37;2.20;;;1.30;;
35290;SDS011;21411;50.024;19.220;2023-08-08T07:16:03;3.70;;;1.40;;
35290;SDS011;21411;50.024;19.220;2023-08-08T07:18:30;1.50;;;1.30;;
35290;SDS011;21411;50.024;19.220;2023-08-08T07:20:56;4.50;;;1.80;;
35290;SDS011;21411;50.024;19.220;2023-08-08T07:23:23;2.40;;;1.40;;
35290;SDS011;21411;50.024;19.220;2023-08-08T07:25:49;2.10;;;1.20;;
35290;SDS011;21411;50.024;19.220;2023-08-08T07:28:17;3.00;;;1.60;;
35290;SDS011;21411;50.024;19.220;2023-08-08T07:30:43;2.90;;;1.70;;
35290;SDS011;21411;50.024;19.220;2023-08-08T07:33:10;2.50;;;1.60;;
35290;SDS011;21411;50.024;19.220;2023-08-08T07:35:37;2.60;;;1.50;;
35290;SDS011;21411;50.024;19.220;2023-08-08T07:38:03;3.50;;;1.50;;
35290;SDS011;21411;50.024;19.220;2023-08-08T07:40:30;2.30;;;1.30;;
35290;SDS011;21411;50.024;19.220;2023-08-08T07:42:57;3.30;;;1.60;;
35290;SDS011;21411;50.024;19.220;2023-08-08T07:45:23;2.30;;;1.70;;
35290;SDS011;21411;50.024;19.220;2023-08-08T07:47:50;4.00;;;1.40;;
35290;SDS011;21411;50.024;19.220;2023-08-08T07:50:16;2.30;;;1.50;;
35290;SDS011;21411;50.024;19.220;2023-08-08T07:52:43;1.80;;;1.20;;
35290;SDS011;21411;50.024;19.220;2023-08-08T07:55:10;2.50;;;1.50;;
35290;SDS011;21411;50.024;19.220;2023-08-08T07:57:36;3.80;;;1.60;;
35290;SDS011;21411;50.024;19.220;2023-08-08T08:00:03;4.10;;;1.60;;
35290;SDS011;21411;50.024;19.220;2023-08-08T08:02:38;3.30;;;1.40;;
35290;SDS011;21411;50.024;19.220;2023-08-08T08:05:06;3.70;;;1.80;;
35290;SDS011;21411;50.024;19.220;2023-08-08T08:07:34;2.40;;;1.50;;
35290;SDS011;21411;50.024;19.220;2023-08-08T08:10:02;3.90;;;1.80;;
35290;SDS011;21411;50.024;19.220;2023-08-08T08:12:30;2.40;;;1.40;;
35290;SDS011;21411;50.024;19.220;2023-08-08T08:14:57;2.90;;;1.30;;
35290;SDS011;21411;50.024;19.220;2023-08-08T08:17:24;2.80;;;1.40;;
35290;SDS011;21411;50.024;19.220;2023-08-08T08:19:51;2.10;;;1.50;;
35290;SDS011;21411;50.024;19.220;2023-08-08T08:22:17;2.70;;;1.60;;
35290;SDS011;21411;50.024;19.220;2023-08-08T08:24:44;2.60;;;1.40;;
35290;SDS011;21411;50.024;19.220;2023-08-08T08:27:12;2.20;;;1.60;;
35290;SDS011;21411;50.024;19.220;2023-08-08T08:29:39;2.40;;;1.70;;
35290;SDS011;21411;50.024;19.220;2023-08-08T08:32:06;2.10;;;1.80;;
35290;SDS011;21411;50.024;19.220;2023-08-08T08:34:33;2.90;;;1.80;;
35290;SDS011;21411;50.024;19.220;2023-08-08T08:36:59;1.80;;;1.60;;
35290;SDS011;21411;50.024;19.220;2023-08-08T08:39:26;3.10;;;1.60;;
35290;SDS011;21411;50.024;19.220;2023-08-08T08:41:54;2.40;;;1.60;;
35290;SDS011;21411;50.024;19.220;2023-08-08T08:44:31;3.90;;;1.60;;
35290;SDS011;21411;50.024;19.220;2023-08-08T08:46:59;2.20;;;1.40;;
35290;SDS011;21411;50.024;19.220;2023-08-08T08:49:31;2.20;;;1.30;;
35290;SDS011;21411;50.024;19.220;2023-08-08T08:51:58;1.40;;;1.30;;
35290;SDS011;21411;50.024;19.220;2023-08-08T08:54:31;2.30;;;1.70;;
35290;SDS011;21411;50.024;19.220;2023-08-08T08:56:58;2.70;;;1.40;;
35290;SDS011;21411;50.024;19.220;2023-08-08T08:59:25;2.80;;;1.40;;
35290;SDS011;21411;50.024;19.220;2023-08-08T09:01:52;2.50;;;1.30;;
35290;SDS011;21411;50.024;19.220;2023-08-08T09:04:20;2.10;;;1.50;;
35290;SDS011;21411;50.024;19.220;2023-08-08T09:06:48;2.80;;;1.60;;
35290;SDS011;21411;50.024;19.220;2023-08-08T09:09:16;1.80;;;1.30;;
35290;SDS011;21411;50.024;19.220;2023-08-08T09:11:44;3.20;;;1.50;;
35290;SDS011;21411;50.024;19.220;2023-08-08T09:14:23;3.60;;;1.50;;
35290;SDS011;21411;50.024;19.220;2023-08-08T09:16:51;2.50;;;1.50;;
35290;SDS011;21411;50.024;19.220;2023-08-08T09:19:23;4.30;;;1.30;;
35290;SDS011;21411;50.024;19.220;2023-08-08T09:21:51;2.40;;;1.30;;
35290;SDS011;21411;50.024;19.220;2023-08-08T09:24:18;2.70;;;1.30;;
35290;SDS011;21411;50.024;19.220;2023-08-08T09:26:45;2.90;;;1.20;;
35290;SDS011;21411;50.024;19.220;2023-08-08T09:29:12;3.20;;;1.10;;
35290;SDS011;21411;50.024;19.220;2023-08-08T09:31:40;1.30;;;1.20;;
35290;SDS011;21411;50.024;19.220;2023-08-08T09:34:07;1.90;;;1.40;;
35290;SDS011;21411;50.024;19.220;2023-08-08T09:36:34;3.60;;;1.50;;
35290;SDS011;21411;50.024;19.220;2023-08-08T09:39:01;4.30;;;1.70;;
35290;SDS011;21411;50.024;19.220;2023-08-08T09:41:28;1.90;;;1.60;;
35290;SDS011;21411;50.024;19.220;2023-08-08T09:43:54;1.60;;;1.20;;
35290;SDS011;21411;50.024;19.220;2023-08-08T09:46:22;3.00;;;1.40;;
35290;SDS011;21411;50.024;19.220;2023-08-08T09:48:49;2.30;;;1.10;;
35290;SDS011;21411;50.024;19.220;2023-08-08T09:51:16;2.00;;;1.50;;
35290;SDS011;21411;50.024;19.220;2023-08-08T09:53:43;1.50;;;1.10;;
35290;SDS011;21411;50.024;19.220;2023-08-08T09:56:11;2.90;;;1.40;;
35290;SDS011;21411;50.024;19.220;2023-08-08T09:58:40;2.20;;;1.40;;
35290;SDS011;21411;50.024;19.220;2023-08-08T10:01:08;1.60;;;1.50;;
35290;SDS011;21411;50.024;19.220;2023-08-08T10:03:36;2.10;;;1.50;;
35290;SDS011;21411;50.024;19.220;2023-08-08T10:06:04;2.50;;;1.40;;
35290;SDS011;21411;50.024;19.220;2023-08-08T10:08:30;2.50;;;1.20;;
35290;SDS011;21411;50.024;19.220;2023-08-08T10:10:57;3.20;;;1.40;;
35290;SDS011;21411;50.024;19.220;2023-08-08T10:13:25;2.70;;;1.50;;
35290;SDS011;21411;50.024;19.220;2023-08-08T10:15:53;1.60;;;1.20;;
35290;SDS011;21411;50.024;19.220;2023-08-08T10:18:21;2.00;;;1.40;;
35290;SDS011;21411;50.024;19.220;2023-08-08T10:20:48;1.70;;;1.30;;
35290;SDS011;21411;50.024;19.220;2023-08-08T10:23:17;2.60;;;1.20;;
35290;SDS011;21411;50.024;19.220;2023-08-08T10:25:47;3.20;;;1.50;;
35290;SDS011;21411;50.024;19.220;2023-08-08T10:28:18;2.20;;;1.80;;
35290;SDS011;21411;50.024;19.220;2023-08-08T10:30:49;2.50;;;1.50;;
35290;SDS011;21411;50.024;19.220;2023-08-08T10:33:19;2.30;;;1.60;;
35290;SDS011;21411;50.024;19.220;2023-08-08T10:38:45;2.70;;;1.30;;
35290;SDS011;21411;50.024;19.220;2023-08-08T10:41:15;3.00;;;1.90;;
35290;SDS011;21411;50.024;19.220;2023-08-08T10:43:50;3.70;;;1.30;;
35290;SDS011;21411;50.024;19.220;2023-08-08T10:46:25;5.10;;;2.50;;
35290;SDS011;21411;50.024;19.220;2023-08-08T10:48:57;4.70;;;1.40;;
35290;SDS011;21411;50.024;19.220;2023-08-08T10:51:38;2.20;;;1.50;;
35290;SDS011;21411;50.024;19.220;2023-08-08T10:54:22;2.30;;;1.20;;
35290;SDS011;21411;50.024;19.220;2023-08-08T10:56:54;1.60;;;1.10;;
35290;SDS011;21411;50.024;19.220;2023-08-08T10:59:22;2.90;;;1.20;;
35290;SDS011;21411;50.024;19.220;2023-08-08T11:01:51;1.80;;;1.30;;
35290;SDS011;21411;50.024;19.220;2023-08-08T11:04:20;1.90;;;1.30;;
35290;SDS011;21411;50.024;19.220;2023-08-08T11:06:49;1.70;;;1.10;;
35290;SDS011;21411;50.024;19.220;2023-08-08T11:09:19;1.20;;;1.10;;
35290;SDS011;21411;50.024;19.220;2023-08-08T11:11:46;2.80;;;1.30;;
35290;SDS011;21411;50.024;19.220;2023-08-08T11:14:14;2.90;;;1.50;;
35290;SDS011;21411;50.024;19.220;2023-08-08T11:16:43;2.10;;;1.50;;
35290;SDS011;21411;50.024;19.220;2023-08-08T11:19:11;2.20;;;1.20;;
35290;SDS011;21411;50.024;19.220;2023-08-08T11:21:42;2.40;;;1.40;;
35290;SDS011;21411;50.024;19.220;2023-08-08T11:24:10;2.40;;;1.40;;
35290;SDS011;21411;50.024;19.220;2023-08-08T11:26:41;1.50;;;1.30;;
35290;SDS011;21411;50.024;19.220;2023-08-08T11:29:11;2.40;;;1.40;;
35290;SDS011;21411;50.024;19.220;2023-08-08T11:31:38;1.50;;;1.20;;
35290;SDS011;21411;50.024;19.220;2023-08-08T11:34:05;2.00;;;1.70;;
35290;SDS011;21411;50.024;19.220;2023-08-08T11:36:32;1.40;;;1.30;;
35290;SDS011;21411;50.024;19.220;2023-08-08T11:39:03;4.90;;;1.80;;
35290;SDS011;21411;50.024;19.220;2023-08-08T11:41:34;4.10;;;1.60;;
35290;SDS011;21411;50.024;19.220;2023-08-08T11:44:05;2.20;;;1.40;;
35290;SDS011;21411;50.024;19.220;2023-08-08T11:46:33;3.40;;;1.60;;
35290;SDS011;21411;50.024;19.220;2023-08-08T11:49:03;2.00;;;1.70;;
35290;SDS011;21411;50.024;19.220;2023-08-08T11:51:33;2.60;;;1.70;;
35290;SDS011;21411;50.024;19.220;2023-08-08T11:54:01;2.50;;;1.60;;
35290;SDS011;21411;50.024;19.220;2023-08-08T11:56:29;2.10;;;1.70;;
35290;SDS011;21411;50.024;19.220;2023-08-08T11:58:59;2.80;;;1.50;;
35290;SDS011;21411;50.024;19.220;2023-08-08T12:01:26;1.80;;;1.30;;
35290;SDS011;21411;50.024;19.220;2023-08-08T12:03:53;2.30;;;1.30;;
35290;SDS011;21411;50.024;19.220;2023-08-08T12:06:21;2.10;;;1.50;;
35290;SDS011;21411;50.024;19.220;2023-08-08T12:08:48;3.00;;;1.60;;
35290;SDS011;21411;50.024;19.220;2023-08-08T12:11:15;3.20;;;1.60;;
35290;SDS011;21411;50.024;19.220;2023-08-08T12:13:42;3.10;;;1.40;;
35290;SDS011;21411;50.024;19.220;2023-08-08T12:16:10;2.50;;;1.80;;
35290;SDS011;21411;50.024;19.220;2023-08-08T12:18:39;1.60;;;1.10;;
35290;SDS011;21411;50.024;19.220;2023-08-08T12:21:07;2.00;;;1.10;;
35290;SDS011;21411;50.024;19.220;2023-08-08T12:23:35;1.80;;;1.30;;
35290;SDS011;21411;50.024;19.220;2023-08-08T12:26:03;1.40;;;1.10;;
35290;SDS011;21411;50.024;19.220;2023-08-08T12:28:33;2.30;;;1.30;;
35290;SDS011;21411;50.024;19.220;2023-08-08T12:31:01;3.00;;;1.70;;
35290;SDS011;21411;50.024;19.220;2023-08-08T12:33:28;2.30;;;1.10;;
35290;SDS011;21411;50.024;19.220;2023-08-08T12:35:55;2.70;;;1.70;;
35290;SDS011;21411;50.024;19.220;2023-08-08T12:38:21;1.60;;;1.40;;
35290;SDS011;21411;50.024;19.220;2023-08-08T12:40:48;3.20;;;1.80;;
35290;SDS011;21411;50.024;19.220;2023-08-08T12:43:15;1.70;;;1.10;;
35290;SDS011;21411;50.024;19.220;2023-08-08T12:45:44;1.70;;;1.60;;
35290;SDS011;21411;50.024;19.220;2023-08-08T12:48:11;2.80;;;1.50;;
35290;SDS011;21411;50.024;19.220;2023-08-08T12:50:39;1.60;;;1.50;;
35290;SDS011;21411;50.024;19.220;2023-08-08T12:53:06;2.70;;;1.50;;
35290;SDS011;21411;50.024;19.220;2023-08-08T12:55:34;3.60;;;1.20;;
35290;SDS011;21411;50.024;19.220;2023-08-08T12:58:01;1.40;;;1.30;;
35290;SDS011;21411;50.024;19.220;2023-08-08T13:00:29;2.00;;;1.50;;
35290;SDS011;21411;50.024;19.220;2023-08-08T13:02:56;1.80;;;1.40;;
35290;SDS011;21411;50.024;19.220;2023-08-08T13:05:22;2.70;;;1.10;;
35290;SDS011;21411;50.024;19.220;2023-08-08T13:07:49;3.60;;;1.30;;
35290;SDS011;21411;50.024;19.220;2023-08-08T13:10:15;1.60;;;1.50;;
35290;SDS011;21411;50.024;19.220;2023-08-08T13:12:42;2.10;;;1.40;;
35290;SDS011;21411;50.024;19.220;2023-08-08T13:15:09;3.40;;;1.30;;
35290;SDS011;21411;50.024;19.220;2023-08-08T13:17:35;1.80;;;1.10;;
35290;SDS011;21411;50.024;19.220;2023-08-08T13:20:02;2.10;;;1.40;;
35290;SDS011;21411;50.024;19.220;2023-08-08T13:22:29;2.50;;;1.10;;
35290;SDS011;21411;50.024;19.220;2023-08-08T13:24:56;1.30;;;1.00;;
35290;SDS011;21411;50.024;19.220;2023-08-08T13:27:22;1.50;;;1.10;;
35290;SDS011;21411;50.024;19.220;2023-08-08T13:29:49;2.90;;;1.80;;
35290;SDS011;21411;50.024;19.220;2023-08-08T13:32:16;2.70;;;1.30;;
35290;SDS011;21411;50.024;19.220;2023-08-08T13:34:42;2.60;;;1.30;;
35290;SDS011;21411;50.024;19.220;2023-08-08T13:37:09;1.60;;;1.20;;
35290;SDS011;21411;50.024;19.220;2023-08-08T13:39:35;1.60;;;1.20;;
35290;SDS011;21411;50.024;19.220;2023-08-08T13:42:02;1.50;;;1.20;;
35290;SDS011;21411;50.024;19.220;2023-08-08T13:44:29;1.50;;;1.20;;
35290;SDS011;21411;50.024;19.220;2023-08-08T13:46:57;1.70;;;1.30;;
35290;SDS011;21411;50.024;19.220;2023-08-08T13:49:27;2.40;;;1.60;;
35290;SDS011;21411;50.024;19.220;2023-08-08T13:51:54;1.40;;;1.30;;
35290;SDS011;21411;50.024;19.220;2023-08-08T13:54:20;2.30;;;1.50;;
35290;SDS011;21411;50.024;19.220;2023-08-08T13:56:47;2.40;;;1.50;;
35290;SDS011;21411;50.024;19.220;2023-08-08T13:59:14;1.60;;;1.50;;
35290;SDS011;21411;50.024;19.220;2023-08-08T14:01:40;2.00;;;1.20;;
35290;SDS011;21411;50.024;19.220;2023-08-08T14:04:07;2.80;;;1.30;;
35290;SDS011;21411;50.024;19.220;2023-08-08T14:06:34;2.50;;;1.10;;
35290;SDS011;21411;50.024;19.220;2023-08-08T14:09:01;2.40;;;1.50;;
35290;SDS011;21411;50.024;19.220;2023-08-08T14:11:27;2.90;;;1.40;;
35290;SDS011;21411;50.024;19.220;2023-08-08T14:13:54;2.10;;;1.30;;
35290;SDS011;21411;50.024;19.220;2023-08-08T14:16:20;1.40;;;1.10;;
35290;SDS011;21411;50.024;19.220;2023-08-08T14:18:47;1.30;;;1.10;;
35290;SDS011;21411;50.024;19.220;2023-08-08T14:21:14;1.50;;;1.10;;
35290;SDS011;21411;50.024;19.220;2023-08-08T14:23:41;2.30;;;1.30;;
35290;SDS011;21411;50.024;19.220;2023-08-08T14:26:08;4.10;;;1.40;;
35290;SDS011;21411;50.024;19.220;2023-08-08T14:28:34;1.60;;;1.30;;
35290;SDS011;21411;50.024;19.220;2023-08-08T14:31:01;3.80;;;1.60;;
35290;SDS011;21411;50.024;19.220;2023-08-08T14:33:28;2.00;;;1.70;;
35290;SDS011;21411;50.024;19.220;2023-08-08T14:35:55;1.60;;;1.40;;
35290;SDS011;21411;50.024;19.220;2023-08-08T14:38:23;1.80;;;1.20;;